Time;durP1;ratioP1;P1;durP2;ratioP2;P2;SDS_P1;SDS_P2;PMS_P1;PMS_P2;Temp;Humidity;BMP_temperature;BMP_pressure;BME280_temperature;BME280_humidity;BME280_pressure;Samples;Min_cycle;Max_cycle;Signal;HPM_P1;HPM_P2
2023/12/30 15:25:05;;;;;;;1053.78;951.53;;;7.40;99.90;;;;;;5071063;27;20391;-80
2023/12/30 15:27:32;;;;;;;1068.30;962.47;;;7.30;99.90;;;;;;5062914;28;20052;-82
2023/12/30 15:29:58;;;;;;;1103.22;988.65;;;7.30;99.90;;;;;;5063291;28;20408;-81
2023/12/30 15:32:23;;;;;;;1130.18;999.90;;;7.30;99.90;;;;;;5064118;28;20595;-82
2023/12/30 15:34:49;;;;;;;978.88;891.10;;;7.30;99.90;;;;;;5062494;28;20416;-81
2023/12/30 15:37:16;;;;;;;920.70;844.20;;;7.30;99.90;;;;;;5078101;28;20102;-82
2023/12/30 15:39:41;;;;;;;738.90;682.92;;;7.40;99.90;;;;;;5046175;28;20040;-81
2023/12/30 15:42:07;;;;;;;711.80;656.35;;;7.40;99.90;;;;;;5062932;28;20223;-82
2023/12/30 15:44:36;;;;;;;762.13;704.35;;;7.40;99.90;;;;;;5061492;28;20158;-82
2023/12/30 15:47:09;;;;;;;761.85;703.10;;;7.40;99.90;;;;;;5058476;28;20060;-82
2023/12/30 15:49:37;;;;;;;767.45;706.90;;;7.40;99.90;;;;;;5053328;28;20088;-82
2023/12/30 15:52:04;;;;;;;734.67;678.50;;;7.40;99.90;;;;;;5063297;28;20041;-82
2023/12/30 15:54:29;;;;;;;771.85;711.38;;;7.50;99.90;;;;;;5061420;28;20139;-81
2023/12/30 15:56:55;;;;;;;759.83;701.47;;;7.40;99.90;;;;;;5078984;28;20151;-83
2023/12/30 15:59:21;;;;;;;699.58;646.50;;;7.50;99.90;;;;;;5062213;28;20132;-82
2023/12/30 16:01:46;;;;;;;748.30;690.78;;;7.50;99.90;;;;;;5061846;28;20110;-83
2023/12/30 16:04:12;;;;;;;751.40;692.60;;;7.50;99.90;;;;;;5061978;28;20127;-82
2023/12/30 16:06:38;;;;;;;745.00;688.22;;;7.50;99.90;;;;;;5047286;28;20475;-82
2023/12/30 16:09:04;;;;;;;719.40;664.42;;;7.50;99.90;;;;;;5048923;28;20635;-82
2023/12/30 16:11:30;;;;;;;693.25;640.42;;;7.60;99.90;;;;;;5061025;28;20140;-82
2023/12/30 16:13:56;;;;;;;722.78;667.28;;;7.60;99.90;;;;;;5062147;28;20044;-83
2023/12/30 16:16:22;;;;;;;685.13;633.53;;;7.60;99.90;;;;;;5061073;28;20431;-82
2023/12/30 16:18:47;;;;;;;691.85;638.78;;;7.60;99.90;;;;;;5061116;28;20049;-82
2023/12/30 16:21:15;;;;;;;705.90;651.72;;;7.60;99.90;;;;;;5061309;28;20032;-82
2023/12/30 16:23:41;;;;;;;718.45;663.42;;;7.60;99.90;;;;;;5093529;28;20563;-82
2023/12/30 16:26:08;;;;;;;713.50;658.30;;;7.70;99.90;;;;;;5061256;28;20060;-82
2023/12/30 16:28:35;;;;;;;737.60;680.15;;;7.60;99.90;;;;;;5089015;28;20076;-83
2023/12/30 16:31:02;;;;;;;724.72;669.33;;;7.60;99.90;;;;;;5058601;28;20056;-83
2023/12/30 16:33:28;;;;;;;698.35;644.65;;;7.70;99.90;;;;;;5060674;28;20636;-83
2023/12/30 16:35:55;;;;;;;701.05;647.50;;;7.70;99.90;;;;;;5084221;28;20572;-82
2023/12/30 16:38:20;;;;;;;734.22;676.95;;;7.70;99.90;;;;;;5065294;28;20500;-82
2023/12/30 16:40:46;;;;;;;736.78;680.50;;;7.70;99.90;;;;;;5047647;28;20047;-83
2023/12/30 16:43:12;;;;;;;717.72;662.47;;;7.70;99.90;;;;;;5064083;28;20408;-82
2023/12/30 16:45:40;;;;;;;752.20;693.85;;;7.70;99.90;;;;;;5047861;28;20052;-83
2023/12/30 16:48:06;;;;;;;737.55;680.42;;;7.70;99.90;;;;;;5019548;28;20065;-83
2023/12/30 16:50:32;;;;;;;689.13;636.63;;;7.80;99.90;;;;;;5045703;28;20124;-82
2023/12/30 16:52:57;;;;;;;702.55;648.05;;;7.80;99.90;;;;;;5046745;28;20128;-83
2023/12/30 16:55:24;;;;;;;725.30;668.67;;;7.80;99.90;;;;;;5034960;28;20045;-82
2023/12/30 16:57:50;;;;;;;702.65;649.03;;;7.80;99.90;;;;;;5034547;28;20392;-83
2023/12/30 17:00:16;;;;;;;737.15;680.20;;;7.80;99.90;;;;;;5046314;28;20131;-82
2023/12/30 17:02:42;;;;;;;748.70;689.40;;;7.80;99.90;;;;;;5047469;28;20037;-83
2023/12/30 17:05:08;;;;;;;701.67;647.95;;;7.80;99.90;;;;;;5047938;28;20094;-83
2023/12/30 17:07:34;;;;;;;709.55;655.30;;;7.80;99.90;;;;;;5046293;28;20040;-83
2023/12/30 17:10:01;;;;;;;716.25;661.50;;;7.80;99.90;;;;;;5031447;28;20075;-83
2023/12/30 17:12:28;;;;;;;699.72;645.58;;;7.80;99.90;;;;;;5047053;28;20497;-83
2023/12/30 17:14:53;;;;;;;733.42;676.70;;;7.80;99.90;;;;;;5047534;28;20165;-85
2023/12/30 17:17:19;;;;;;;709.67;654.63;;;7.80;99.90;;;;;;5046746;28;20546;-82
2023/12/30 17:19:45;;;;;;;722.60;667.00;;;7.80;99.90;;;;;;5047866;28;20040;-83
2023/12/30 17:22:12;;;;;;;695.08;642.13;;;7.80;99.90;;;;;;5045497;28;20049;-83
2023/12/30 17:24:37;;;;;;;713.95;659.42;;;7.80;99.90;;;;;;5030913;28;20056;-82
2023/12/30 17:27:03;;;;;;;726.80;671.08;;;7.90;99.90;;;;;;5030983;28;20052;-81
2023/12/30 17:29:29;;;;;;;675.42;624.80;;;7.90;99.90;;;;;;5046140;28;20437;-80
2023/12/30 17:31:55;;;;;;;728.40;672.13;;;7.80;99.90;;;;;;5049288;28;20044;-82
2023/12/30 17:34:21;;;;;;;682.15;630.40;;;7.90;99.90;;;;;;5045761;28;20044;-82
2023/12/30 17:36:47;;;;;;;737.67;680.30;;;7.80;99.90;;;;;;5045771;28;20055;-83
2023/12/30 17:39:14;;;;;;;758.60;699.13;;;7.90;99.90;;;;;;5046895;28;20040;-82
2023/12/30 17:41:41;;;;;;;723.28;667.92;;;7.90;99.90;;;;;;5030163;28;20041;-82
2023/12/30 17:44:07;;;;;;;702.72;648.80;;;7.90;99.90;;;;;;5047243;28;20068;-83
2023/12/30 17:46:34;;;;;;;697.25;644.63;;;7.90;99.90;;;;;;5044758;28;20480;-83
2023/12/30 17:48:59;;;;;;;695.70;643.08;;;7.90;99.90;;;;;;5030970;28;20045;-82
2023/12/30 17:51:25;;;;;;;667.40;616.80;;;7.90;99.90;;;;;;5047236;28;20060;-84
2023/12/30 17:53:51;;;;;;;704.58;651.40;;;7.90;99.90;;;;;;5080166;28;20412;-83
2023/12/30 17:56:17;;;;;;;664.17;613.90;;;7.90;99.90;;;;;;5029886;28;20045;-82
2023/12/30 17:58:43;;;;;;;667.22;616.63;;;7.90;99.90;;;;;;5062983;28;20039;-83
2023/12/30 18:01:09;;;;;;;657.70;608.67;;;7.90;99.90;;;;;;5079577;28;20048;-83
2023/12/30 18:03:35;;;;;;;679.70;628.33;;;7.90;99.90;;;;;;5045920;28;20033;-83
2023/12/30 18:06:01;;;;;;;730.17;674.08;;;7.90;99.90;;;;;;5029785;28;20059;-83
2023/12/30 18:08:27;;;;;;;685.55;634.03;;;7.90;99.90;;;;;;5040700;28;20873;-83
2023/12/30 18:10:53;;;;;;;699.88;646.97;;;7.90;99.90;;;;;;5035812;28;20040;-83
2023/12/30 18:13:19;;;;;;;671.40;620.42;;;7.90;99.90;;;;;;5046457;28;20056;-82
2023/12/30 18:15:44;;;;;;;689.03;637.28;;;7.90;99.90;;;;;;5045971;28;20135;-83
2023/12/30 18:18:10;;;;;;;722.17;667.08;;;7.90;99.90;;;;;;5047748;28;20036;-83
2023/12/30 18:20:37;;;;;;;690.75;638.85;;;7.90;99.90;;;;;;5045704;28;20451;-82
2023/12/30 18:23:03;;;;;;;643.30;595.33;;;7.90;99.90;;;;;;5046200;28;20425;-83
2023/12/30 18:25:29;;;;;;;698.10;645.58;;;7.90;99.90;;;;;;5044318;28;20524;-83
2023/12/30 18:27:54;;;;;;;674.53;623.38;;;7.90;99.90;;;;;;5045752;28;20452;-83
2023/12/30 18:30:20;;;;;;;678.60;627.83;;;7.90;99.90;;;;;;5046330;28;20037;-82
2023/12/30 18:32:46;;;;;;;693.97;640.95;;;7.90;99.90;;;;;;5045638;28;20541;-83
2023/12/30 18:35:12;;;;;;;695.70;643.38;;;7.90;99.90;;;;;;5036230;28;20103;-83
2023/12/30 18:37:38;;;;;;;654.20;606.08;;;7.90;99.90;;;;;;5022337;28;20033;-83
2023/12/30 18:40:07;;;;;;;705.90;651.80;;;8.00;99.90;;;;;;5042747;28;20063;-82
2023/12/30 18:42:33;;;;;;;692.75;640.47;;;8.00;99.90;;;;;;5043575;28;20041;-81
2023/12/30 18:44:58;;;;;;;700.80;648.35;;;8.00;99.90;;;;;;5027203;28;20555;-83
2023/12/30 18:47:24;;;;;;;697.80;644.40;;;8.00;99.90;;;;;;5052947;28;20041;-83
2023/12/30 18:49:50;;;;;;;647.42;598.50;;;8.00;99.90;;;;;;5037156;28;20126;-83
2023/12/30 18:52:17;;;;;;;707.08;653.60;;;8.00;99.90;;;;;;5025861;28;20350;-83
2023/12/30 18:54:43;;;;;;;663.95;614.08;;;8.00;99.90;;;;;;5043068;28;20337;-83
2023/12/30 18:57:09;;;;;;;620.42;574.10;;;8.00;99.90;;;;;;5042890;28;20534;-84
2023/12/30 18:59:34;;;;;;;645.10;597.53;;;8.00;99.90;;;;;;5070973;28;20464;-84
2023/12/30 19:02:00;;;;;;;672.90;622.63;;;8.00;99.90;;;;;;5034096;28;20091;-84
2023/12/30 19:04:27;;;;;;;596.10;552.13;;;8.00;99.90;;;;;;5038514;28;20123;-85
2023/12/30 19:06:53;;;;;;;662.53;612.28;;;8.00;99.90;;;;;;5015986;28;20045;-84
2023/12/30 19:09:19;;;;;;;594.80;551.47;;;8.00;99.90;;;;;;5038757;28;20045;-84
2023/12/30 19:11:45;;;;;;;632.78;585.38;;;7.90;99.90;;;;;;5035349;28;20080;-84
2023/12/30 19:14:11;;;;;;;669.15;618.65;;;7.90;99.90;;;;;;5042335;28;20045;-83
2023/12/30 19:16:36;;;;;;;610.70;565.97;;;7.90;99.90;;;;;;5042693;28;20077;-83
2023/12/30 19:19:02;;;;;;;612.13;566.75;;;7.80;99.90;;;;;;5042290;28;20153;-82
2023/12/30 19:21:28;;;;;;;626.58;580.28;;;7.80;99.90;;;;;;5024009;28;20044;-84
2023/12/30 19:23:54;;;;;;;655.25;606.22;;;7.70;99.90;;;;;;5043218;28;20529;-82
2023/12/30 19:26:20;;;;;;;641.63;593.80;;;7.70;99.90;;;;;;5042869;28;20049;-82
2023/12/30 19:28:45;;;;;;;646.25;597.85;;;7.70;99.90;;;;;;5048620;28;20488;-83
2023/12/30 19:31:12;;;;;;;657.90;608.28;;;7.70;99.90;;;;;;5025807;28;20052;-83
2023/12/30 19:33:40;;;;;;;644.20;595.80;;;7.70;99.90;;;;;;5046670;28;20483;-83
2023/12/30 19:36:06;;;;;;;683.55;631.40;;;7.70;99.90;;;;;;5041576;28;20524;-83
2023/12/30 19:38:32;;;;;;;651.63;603.45;;;7.70;99.90;;;;;;5041424;28;20408;-84
2023/12/30 19:40:57;;;;;;;661.65;612.00;;;7.60;99.90;;;;;;5076029;28;20053;-83
2023/12/30 19:43:23;;;;;;;734.30;676.35;;;7.60;99.90;;;;;;5036996;28;20546;-83
2023/12/30 19:45:49;;;;;;;730.90;675.00;;;7.70;99.90;;;;;;5039377;28;20045;-84
2023/12/30 19:48:16;;;;;;;690.67;638.58;;;7.60;99.90;;;;;;5029364;28;20081;-83
2023/12/30 19:50:43;;;;;;;659.83;610.78;;;7.60;99.90;;;;;;5040844;28;20049;-84
2023/12/30 19:53:11;;;;;;;702.10;648.92;;;7.60;99.90;;;;;;5025151;28;20052;-83
2023/12/30 19:55:37;;;;;;;722.80;667.85;;;7.60;99.90;;;;;;5043723;28;20037;-84
2023/12/30 19:58:03;;;;;;;657.03;607.92;;;7.60;99.90;;;;;;5024737;28;20048;-83
2023/12/30 20:00:29;;;;;;;665.85;616.25;;;7.60;99.90;;;;;;5025053;28;20098;-84
2023/12/30 20:02:55;;;;;;;655.33;606.60;;;7.60;99.90;;;;;;5025006;28;20048;-84
2023/12/30 20:05:21;;;;;;;730.20;673.78;;;7.60;99.90;;;;;;5042208;28;20080;-83
2023/12/30 20:07:46;;;;;;;744.42;687.10;;;7.60;99.90;;;;;;5039188;28;20075;-83
2023/12/30 20:10:12;;;;;;;722.17;668.00;;;7.60;99.90;;;;;;5041998;28;20084;-84
2023/12/30 20:12:38;;;;;;;717.22;662.55;;;7.60;99.90;;;;;;5046230;28;20052;-84
2023/12/30 20:15:07;;;;;;;670.55;620.97;;;7.60;99.90;;;;;;5037924;28;20041;-84
2023/12/30 20:17:33;;;;;;;656.47;607.72;;;7.60;99.90;;;;;;5025452;28;20479;-83
2023/12/30 20:19:59;;;;;;;671.13;621.80;;;7.60;99.90;;;;;;5043647;28;20077;-84
2023/12/30 20:22:25;;;;;;;688.20;637.25;;;7.60;99.90;;;;;;5045049;28;20083;-83
2023/12/30 20:24:51;;;;;;;676.80;626.75;;;7.60;99.90;;;;;;5045098;28;20819;-84
2023/12/30 20:27:17;;;;;;;727.92;673.28;;;7.60;99.90;;;;;;5045195;28;20049;-84
2023/12/30 20:29:43;;;;;;;665.78;616.45;;;7.60;99.90;;;;;;5045558;28;20049;-84
2023/12/30 20:32:09;;;;;;;673.75;623.25;;;7.60;99.90;;;;;;5044764;28;20077;-84
2023/12/30 20:34:35;;;;;;;674.83;624.08;;;7.60;99.90;;;;;;5079902;28;20071;-84
2023/12/30 20:37:01;;;;;;;726.95;671.85;;;7.60;99.90;;;;;;5046060;28;20143;-83
2023/12/30 20:39:27;;;;;;;684.03;633.53;;;7.60;99.90;;;;;;5044583;28;20487;-82
2023/12/30 20:41:53;;;;;;;643.17;595.28;;;7.60;99.90;;;;;;5045849;28;20378;-84
2023/12/30 20:44:19;;;;;;;637.70;590.60;;;7.60;99.90;;;;;;5078629;28;20048;-84
2023/12/30 20:46:46;;;;;;;714.47;660.13;;;7.60;99.90;;;;;;5044186;28;20032;-84
2023/12/30 20:49:13;;;;;;;677.80;627.13;;;7.50;99.90;;;;;;5033787;28;20048;-83
2023/12/30 20:51:39;;;;;;;660.83;611.80;;;7.50;99.90;;;;;;5060596;28;20057;-84
2023/12/30 20:54:05;;;;;;;653.17;605.35;;;7.50;99.90;;;;;;5044505;28;20161;-84
2023/12/30 20:56:31;;;;;;;707.47;654.63;;;7.40;99.90;;;;;;5036467;28;20091;-84
2023/12/30 20:58:57;;;;;;;709.88;656.65;;;7.40;99.90;;;;;;5038576;28;20045;-84
2023/12/30 21:01:22;;;;;;;694.03;641.40;;;7.40;99.90;;;;;;5044872;28;20045;-84
2023/12/30 21:03:49;;;;;;;631.97;585.30;;;7.40;99.90;;;;;;5028649;28;20485;-84
2023/12/30 21:06:15;;;;;;;702.70;650.05;;;7.40;99.90;;;;;;5044107;28;20045;-85
2023/12/30 21:08:42;;;;;;;715.33;661.67;;;7.40;99.90;;;;;;5037711;28;20775;-85
2023/12/30 21:11:08;;;;;;;681.28;630.95;;;7.40;99.90;;;;;;5024845;28;20064;-84
2023/12/30 21:13:34;;;;;;;731.92;676.90;;;7.40;99.90;;;;;;5019185;28;20037;-84
2023/12/30 21:15:59;;;;;;;741.13;684.63;;;7.40;99.90;;;;;;5045635;28;20114;-83
2023/12/30 21:18:26;;;;;;;700.33;647.63;;;7.40;99.90;;;;;;5045019;28;20207;-83
2023/12/30 21:20:52;;;;;;;677.00;626.53;;;7.40;99.90;;;;;;5076438;28;20049;-83
2023/12/30 21:23:17;;;;;;;733.60;677.97;;;7.40;99.90;;;;;;5060851;28;20057;-84
2023/12/30 21:25:48;;;;;;;683.58;632.53;;;7.30;99.90;;;;;;5043996;28;20056;-84
2023/12/30 21:28:14;;;;;;;664.10;615.30;;;7.30;99.90;;;;;;5043888;28;20527;-84
2023/12/30 21:30:40;;;;;;;705.88;653.08;;;7.30;99.90;;;;;;5078678;28;20122;-85
2023/12/30 21:33:06;;;;;;;666.22;617.03;;;7.30;99.90;;;;;;5028131;28;20127;-84
2023/12/30 21:35:32;;;;;;;669.38;620.13;;;7.30;99.90;;;;;;5044046;28;20518;-83
2023/12/30 21:37:58;;;;;;;696.83;644.47;;;7.30;99.90;;;;;;5043339;28;20403;-85
2023/12/30 21:40:24;;;;;;;712.00;658.78;;;7.20;99.90;;;;;;5044182;28;20103;-85
2023/12/30 21:42:50;;;;;;;703.08;650.88;;;7.20;99.90;;;;;;5059955;28;20159;-86
2023/12/30 21:45:17;;;;;;;642.53;594.90;;;7.00;99.90;;;;;;5060287;28;20041;-85
2023/12/30 21:47:43;;;;;;;664.05;614.88;;;7.20;99.90;;;;;;5034661;28;20057;-84
2023/12/30 21:50:09;;;;;;;703.58;651.50;;;7.20;99.90;;;;;;5039369;28;20040;-84
2023/12/30 21:52:34;;;;;;;687.47;636.13;;;7.20;99.90;;;;;;5026879;28;20779;-84
2023/12/30 21:55:00;;;;;;;688.70;637.03;;;7.20;99.90;;;;;;5061097;28;20059;-85
2023/12/30 21:57:26;;;;;;;699.53;647.50;;;7.20;99.90;;;;;;5042922;28;20056;-85
2023/12/30 21:59:52;;;;;;;714.42;661.00;;;7.20;99.90;;;;;;5027867;28;20040;-84
2023/12/30 22:02:17;;;;;;;717.88;664.03;;;7.20;99.90;;;;;;5043495;28;20102;-84
2023/12/30 22:04:43;;;;;;;708.78;655.53;;;7.10;99.90;;;;;;5042952;28;20053;-83
2023/12/30 22:07:09;;;;;;;726.88;672.13;;;7.10;99.90;;;;;;5056880;28;20041;-84
2023/12/30 22:09:34;;;;;;;709.83;657.03;;;7.10;99.90;;;;;;5043191;28;20663;-83
2023/12/30 22:12:00;;;;;;;667.10;617.50;;;7.10;99.90;;;;;;5044722;28;20444;-84
2023/12/30 22:14:26;;;;;;;687.70;636.75;;;7.10;99.90;;;;;;5045099;28;20048;-84
2023/12/30 22:16:51;;;;;;;706.47;653.97;;;7.10;99.90;;;;;;5079554;28;20055;-84
2023/12/30 22:19:17;;;;;;;684.72;634.30;;;7.10;99.90;;;;;;5046411;28;20052;-84
2023/12/30 22:21:43;;;;;;;725.13;671.10;;;7.00;99.90;;;;;;5045538;28;20047;-84
2023/12/30 22:24:09;;;;;;;751.08;693.53;;;7.00;99.90;;;;;;5029342;28;20044;-84
2023/12/30 22:26:35;;;;;;;738.28;682.55;;;7.10;99.90;;;;;;5029225;28;20120;-85
2023/12/30 22:29:01;;;;;;;720.03;666.00;;;7.10;99.90;;;;;;5063074;28;20223;-84
2023/12/30 22:31:26;;;;;;;716.60;663.35;;;7.10;99.90;;;;;;5039184;28;20129;-84
2023/12/30 22:33:52;;;;;;;727.60;673.15;;;6.90;99.90;;;;;;5038702;28;20416;-84
2023/12/30 22:36:26;;;;;;;687.28;636.45;;;7.10;99.90;;;;;;5019101;28;20055;-84
2023/12/30 22:38:52;;;;;;;724.47;669.45;;;7.30;99.90;;;;;;5074020;28;20045;-84
2023/12/30 22:41:17;;;;;;;740.70;684.55;;;7.10;99.90;;;;;;5044651;28;20075;-84
2023/12/30 22:43:43;;;;;;;752.70;693.60;;;7.10;99.90;;;;;;5044961;28;20041;-84
2023/12/30 22:46:09;;;;;;;760.72;702.55;;;7.00;99.90;;;;;;5042797;28;20053;-84
2023/12/30 22:48:35;;;;;;;760.30;703.00;;;7.10;99.90;;;;;;5061345;28;20562;-84
2023/12/30 22:51:02;;;;;;;806.95;743.75;;;7.10;99.90;;;;;;5044654;28;20045;-85
2023/12/30 22:53:27;;;;;;;768.47;709.95;;;7.10;99.90;;;;;;5027926;28;20049;-84
2023/12/30 22:55:53;;;;;;;792.10;731.42;;;7.20;99.90;;;;;;5028493;28;20375;-84
2023/12/30 22:58:19;;;;;;;713.15;659.58;;;7.20;99.90;;;;;;5045270;28;20395;-84
2023/12/30 23:00:49;;;;;;;722.08;667.70;;;7.20;99.90;;;;;;5044070;28;20082;-84
2023/12/30 23:03:16;;;;;;;771.58;710.88;;;7.30;99.90;;;;;;5044956;28;20051;-84
2023/12/30 23:05:43;;;;;;;760.55;703.33;;;7.30;99.90;;;;;;5043192;28;20045;-83
2023/12/30 23:08:09;;;;;;;749.05;692.33;;;7.30;99.90;;;;;;5045135;28;20132;-84
2023/12/30 23:10:35;;;;;;;792.35;731.15;;;7.30;99.90;;;;;;5044971;28;20123;-84
2023/12/30 23:13:01;;;;;;;745.20;688.83;;;7.40;99.90;;;;;;5044428;28;20790;-84
2023/12/30 23:15:27;;;;;;;766.05;707.17;;;7.40;99.90;;;;;;5044612;28;20049;-84
2023/12/30 23:17:52;;;;;;;749.30;692.60;;;7.50;99.90;;;;;;5043621;28;20041;-84
2023/12/30 23:20:21;;;;;;;724.83;670.58;;;7.50;99.90;;;;;;5078818;28;20052;-84
2023/12/30 23:22:47;;;;;;;708.70;655.78;;;7.50;99.90;;;;;;5072544;28;20052;-84
2023/12/30 23:25:13;;;;;;;754.78;697.53;;;7.60;99.90;;;;;;5049974;28;20057;-84
2023/12/30 23:27:39;;;;;;;775.88;716.22;;;7.60;99.90;;;;;;5046722;28;20401;-84
2023/12/30 23:30:05;;;;;;;733.45;677.88;;;7.60;99.90;;;;;;5037277;28;20048;-84
2023/12/30 23:32:33;;;;;;;808.08;745.50;;;7.70;99.90;;;;;;5049840;28;20404;-84
2023/12/30 23:35:00;;;;;;;777.80;718.33;;;7.70;99.90;;;;;;5051884;28;20041;-84
2023/12/30 23:37:25;;;;;;;719.95;665.80;;;7.70;99.90;;;;;;5077369;28;20037;-84
2023/12/30 23:39:52;;;;;;;738.90;683.22;;;7.80;99.90;;;;;;5066217;28;20414;-84
2023/12/30 23:42:19;;;;;;;825.85;758.83;;;7.80;99.90;;;;;;5046523;28;20045;-84
2023/12/30 23:44:44;;;;;;;753.58;695.88;;;7.90;99.90;;;;;;5036340;28;20105;-83
2023/12/30 23:47:10;;;;;;;763.40;705.22;;;7.90;99.90;;;;;;5046722;28;20033;-84
2023/12/30 23:49:36;;;;;;;730.22;674.35;;;8.00;99.90;;;;;;5046400;28;20044;-84
2023/12/30 23:52:02;;;;;;;733.83;678.92;;;7.90;99.90;;;;;;5050546;28;20481;-84
2023/12/30 23:54:27;;;;;;;741.20;684.83;;;8.00;99.90;;;;;;5089773;28;20051;-84
2023/12/30 23:56:53;;;;;;;721.33;667.83;;;8.00;99.90;;;;;;5051159;28;20627;-84
2023/12/30 23:59:19;;;;;;;699.22;647.05;;;8.00;99.90;;;;;;5050984;28;20050;-84
